createdAt,value
2018-09-17T00:01:52.096Z,17.90
2018-09-17T00:04:20.890Z,17.87
2018-09-17T00:06:49.789Z,17.84
2018-09-17T00:09:18.548Z,17.81
2018-09-17T00:11:49.044Z,17.77
2018-09-17T00:14:17.787Z,17.72
2018-09-17T00:16:46.558Z,17.72
2018-09-17T00:19:15.292Z,17.71
2018-09-17T00:21:44.408Z,17.71
2018-09-17T00:24:13.220Z,17.64
2018-09-17T00:26:42.019Z,17.62
2018-09-17T00:29:11.020Z,17.57
2018-09-17T00:31:39.868Z,17.41
2018-09-17T00:34:08.678Z,17.35
2018-09-17T00:36:37.442Z,17.38
2018-09-17T00:39:09.634Z,17.33
2018-09-17T00:41:38.383Z,17.28
2018-09-17T00:44:07.182Z,17.20
2018-09-17T00:46:36.023Z,17.14
2018-09-17T00:49:05.321Z,17.12
2018-09-17T00:51:34.162Z,17.11
2018-09-17T00:54:02.983Z,17.00
2018-09-17T00:56:31.759Z,17.01
2018-09-17T00:59:00.992Z,16.93
2018-09-17T01:01:29.791Z,16.84
2018-09-17T01:03:58.551Z,16.81
2018-09-17T01:06:27.354Z,16.77
2018-09-17T01:08:56.122Z,16.77
2018-09-17T01:11:24.922Z,16.82
2018-09-17T01:13:53.721Z,16.82
2018-09-17T01:16:22.455Z,16.85
2018-09-17T01:18:51.295Z,16.85
2018-09-17T01:21:20.060Z,16.83
2018-09-17T01:23:48.826Z,16.79
2018-09-17T01:26:17.606Z,16.68
2018-09-17T01:28:46.737Z,16.66
2018-09-17T01:31:15.548Z,16.66
2018-09-17T01:33:44.324Z,16.67
2018-09-17T01:36:13.089Z,16.61
2018-09-17T01:38:41.935Z,16.64
2018-09-17T01:41:10.784Z,16.64
2018-09-17T01:43:39.612Z,16.60
2018-09-17T01:46:08.496Z,16.62
2018-09-17T01:48:37.422Z,16.70
2018-09-17T01:51:06.316Z,16.74
2018-09-17T01:53:35.092Z,16.79
2018-09-17T01:56:04.050Z,16.72
2018-09-17T01:58:32.911Z,16.69
2018-09-17T02:01:01.749Z,16.68
2018-09-17T02:03:30.540Z,16.70
2018-09-17T02:05:59.323Z,16.71
2018-09-17T02:08:28.858Z,16.73
2018-09-17T02:10:58.034Z,16.73
2018-09-17T02:13:27.470Z,16.70
2018-09-17T02:15:56.227Z,16.68
2018-09-17T02:18:25.019Z,16.64
2018-09-17T02:20:53.790Z,16.59
2018-09-17T02:23:22.590Z,16.59
2018-09-17T02:25:51.359Z,16.56
2018-09-17T02:28:20.124Z,16.51
2018-09-17T02:30:48.951Z,16.46
2018-09-17T02:33:17.732Z,16.40
2018-09-17T02:35:46.563Z,16.44
2018-09-17T02:38:15.389Z,16.38
2018-09-17T02:40:44.176Z,16.32
2018-09-17T02:43:13.007Z,16.25
2018-09-17T02:45:41.759Z,16.26
2018-09-17T02:48:10.971Z,16.23
2018-09-17T02:50:39.757Z,16.14
2018-09-17T02:53:08.506Z,16.11
2018-09-17T02:55:37.287Z,16.03
2018-09-17T02:58:06.075Z,15.97
2018-09-17T03:00:34.815Z,15.92
2018-09-17T03:03:03.576Z,15.83
2018-09-17T03:05:32.498Z,15.82
2018-09-17T03:08:01.297Z,15.84
2018-09-17T03:10:30.104Z,15.88
2018-09-17T03:12:58.893Z,15.93
2018-09-17T03:15:38.694Z,15.90
2018-09-17T03:18:07.463Z,15.84
2018-09-17T03:20:36.275Z,15.82
2018-09-17T03:23:05.141Z,15.82
2018-09-17T03:25:33.949Z,15.83
2018-09-17T03:28:02.766Z,15.85
2018-09-17T03:30:31.584Z,15.81
2018-09-17T03:33:00.349Z,15.74
2018-09-17T03:35:29.176Z,15.73
2018-09-17T03:38:05.465Z,15.83
2018-09-17T03:40:34.210Z,15.84
2018-09-17T03:43:02.972Z,15.87
2018-09-17T03:45:31.740Z,15.91
2018-09-17T03:48:00.615Z,15.91
2018-09-17T03:50:29.526Z,15.90
2018-09-17T03:52:58.475Z,15.85
2018-09-17T03:55:27.288Z,15.87
2018-09-17T03:57:56.110Z,15.87
2018-09-17T04:00:24.879Z,15.86
2018-09-17T04:02:53.715Z,15.90
2018-09-17T04:05:22.533Z,15.92
2018-09-17T04:07:51.350Z,15.91
2018-09-17T04:10:20.133Z,15.90
2018-09-17T04:12:48.930Z,15.88
2018-09-17T04:15:17.712Z,15.96
2018-09-17T04:17:46.494Z,15.99
2018-09-17T04:20:15.295Z,15.94
2018-09-17T04:22:44.090Z,15.96
2018-09-17T04:25:12.873Z,15.94
2018-09-17T04:27:41.698Z,15.99
2018-09-17T04:30:10.573Z,16.03
2018-09-17T04:32:39.427Z,16.05
2018-09-17T04:35:08.589Z,16.07
2018-09-17T04:37:38.895Z,16.14
2018-09-17T04:40:08.075Z,16.18
2018-09-17T04:42:38.112Z,16.25
2018-09-17T04:45:07.119Z,16.35
2018-09-17T04:47:36.319Z,16.39
2018-09-17T04:50:05.297Z,16.38
2018-09-17T04:52:34.136Z,16.42
2018-09-17T04:55:03.208Z,16.55
2018-09-17T04:57:32.377Z,16.61
2018-09-17T05:00:01.264Z,16.73
2018-09-17T05:02:30.139Z,16.78
2018-09-17T05:04:58.954Z,16.81
2018-09-17T05:07:27.891Z,16.73
2018-09-17T05:09:56.763Z,16.79
2018-09-17T05:12:25.627Z,16.80
2018-09-17T05:14:54.424Z,16.79
2018-09-17T05:17:23.176Z,16.88
2018-09-17T05:19:51.988Z,16.94
2018-09-17T05:22:20.730Z,16.90
2018-09-17T05:24:49.537Z,16.90
2018-09-17T05:27:18.345Z,16.98
2018-09-17T05:29:47.183Z,17.11
2018-09-17T05:32:16.039Z,17.16
2018-09-17T05:34:44.832Z,17.25
2018-09-17T05:37:14.528Z,17.33
2018-09-17T05:39:43.352Z,17.36
2018-09-17T05:42:12.166Z,17.38
2018-09-17T05:44:41.084Z,17.42
2018-09-17T05:47:09.917Z,17.44
2018-09-17T05:49:38.762Z,17.39
2018-09-17T05:52:07.576Z,17.37
2018-09-17T05:54:36.386Z,17.37
2018-09-17T05:57:05.200Z,17.41
2018-09-17T05:59:34.060Z,17.34
2018-09-17T06:02:03.059Z,17.43
2018-09-17T06:04:31.846Z,17.47
2018-09-17T06:07:00.762Z,17.56
2018-09-17T06:09:29.685Z,17.65
2018-09-17T06:11:58.532Z,17.70
2018-09-17T06:14:27.596Z,17.76
2018-09-17T06:16:56.581Z,17.76
2018-09-17T06:19:25.456Z,17.86
2018-09-17T06:21:54.276Z,17.87
2018-09-17T06:24:23.105Z,17.54
2018-09-17T06:26:51.971Z,17.60
2018-09-17T06:29:20.756Z,17.66
2018-09-17T06:31:49.596Z,17.75
2018-09-17T06:34:18.508Z,17.72
2018-09-17T06:36:47.287Z,17.74
2018-09-17T06:39:16.097Z,17.86
2018-09-17T06:41:44.895Z,17.98
2018-09-17T06:44:13.870Z,18.14
2018-09-17T06:46:42.669Z,18.11
2018-09-17T06:49:11.435Z,18.02
2018-09-17T06:51:40.236Z,18.14
2018-09-17T06:54:09.043Z,18.41
2018-09-17T06:56:38.605Z,18.59
2018-09-17T06:59:07.403Z,18.75
2018-09-17T07:01:36.183Z,18.70
2018-09-17T07:04:05.067Z,18.74
2018-09-17T07:06:33.979Z,18.92
2018-09-17T07:09:02.858Z,19.08
2018-09-17T07:11:31.786Z,19.12
2018-09-17T07:14:00.638Z,19.10
2018-09-17T07:16:29.486Z,19.17
2018-09-17T07:18:58.340Z,19.18
2018-09-17T07:21:27.205Z,19.22
2018-09-17T07:23:56.061Z,19.19
2018-09-17T07:26:24.982Z,19.21
2018-09-17T07:28:53.830Z,19.41
2018-09-17T07:31:22.712Z,19.54
2018-09-17T07:33:51.515Z,19.48
2018-09-17T07:36:20.391Z,19.45
2018-09-17T07:38:49.633Z,19.40
2018-09-17T07:41:18.704Z,19.40
2018-09-17T07:43:47.545Z,19.52
2018-09-17T07:46:16.348Z,19.27
2018-09-17T07:48:45.264Z,19.38
2018-09-17T07:51:14.061Z,19.09
2018-09-17T07:53:42.896Z,19.19
2018-09-17T07:56:11.756Z,19.23
2018-09-17T07:58:40.569Z,19.25
2018-09-17T08:01:09.523Z,19.12
2018-09-17T08:03:38.360Z,19.21
2018-09-17T08:06:07.210Z,19.37
2018-09-17T08:08:36.308Z,19.52
2018-09-17T08:11:05.211Z,19.63
2018-09-17T08:13:34.014Z,19.65
2018-09-17T08:16:02.858Z,19.77
2018-09-17T08:18:31.670Z,19.86
2018-09-17T08:21:00.726Z,19.97
2018-09-17T08:23:29.556Z,20.11
2018-09-17T08:25:58.379Z,20.10
2018-09-17T08:28:27.254Z,20.22
2018-09-17T08:30:59.000Z,20.33
2018-09-17T08:33:27.827Z,20.30
2018-09-17T08:35:56.740Z,20.26
2018-09-17T08:38:25.631Z,20.30
2018-09-17T08:40:54.483Z,20.37
2018-09-17T08:43:23.330Z,20.39
2018-09-17T08:45:52.137Z,20.46
2018-09-17T08:48:20.960Z,20.57
2018-09-17T08:50:50.081Z,20.71
2018-09-17T08:53:19.020Z,20.81
2018-09-17T08:55:51.951Z,20.95
2018-09-17T08:58:24.677Z,21.02
2018-09-17T09:01:01.151Z,20.96
2018-09-17T09:03:34.077Z,20.94
2018-09-17T09:06:08.732Z,21.04
2018-09-17T09:08:37.647Z,21.12
2018-09-17T09:11:11.804Z,21.17
2018-09-17T09:13:45.766Z,21.31
2018-09-17T09:16:14.558Z,21.46
2018-09-17T09:18:43.373Z,21.43
2018-09-17T09:21:12.183Z,21.47
2018-09-17T09:23:40.976Z,21.60
2018-09-17T09:26:09.843Z,21.72
2018-09-17T09:28:38.712Z,21.75
2018-09-17T09:31:07.676Z,21.78
2018-09-17T09:33:36.524Z,21.82
2018-09-17T09:36:05.385Z,21.88
2018-09-17T09:38:34.165Z,21.95
2018-09-17T09:41:03.003Z,22.03
2018-09-17T09:43:31.803Z,22.02
2018-09-17T09:46:00.607Z,22.03
2018-09-17T09:48:29.411Z,21.97
2018-09-17T09:50:58.252Z,21.93
2018-09-17T09:53:27.099Z,21.94
2018-09-17T09:55:55.887Z,21.88
2018-09-17T09:58:24.828Z,22.01
2018-09-17T10:00:58.698Z,22.15
2018-09-17T10:03:34.557Z,22.22
2018-09-17T10:06:03.652Z,22.39
2018-09-17T10:08:36.631Z,22.56
2018-09-17T10:11:10.515Z,22.80
2018-09-17T10:13:44.495Z,22.92
2018-09-17T10:16:19.473Z,23.14
2018-09-17T10:18:53.342Z,23.22
2018-09-17T10:21:22.539Z,23.34
2018-09-17T10:23:51.330Z,23.41
2018-09-17T10:26:20.207Z,23.55
2018-09-17T10:28:49.021Z,23.65
2018-09-17T10:31:17.835Z,23.77
2018-09-17T10:33:46.726Z,23.84
2018-09-17T10:36:15.531Z,23.96
2018-09-17T10:38:44.358Z,24.15
2018-09-17T10:41:13.215Z,24.14
2018-09-17T10:43:42.018Z,24.09
2018-09-17T10:46:10.921Z,24.09
2018-09-17T10:48:39.788Z,24.12
2018-09-17T10:51:08.559Z,24.05
2018-09-17T10:53:37.333Z,24.05
2018-09-17T10:56:06.298Z,24.04
2018-09-17T10:58:35.100Z,24.14
2018-09-17T11:01:03.987Z,24.09
2018-09-17T11:03:32.782Z,24.14
2018-09-17T11:06:01.606Z,24.23
2018-09-17T11:08:30.439Z,24.46
2018-09-17T11:10:59.264Z,24.70
2018-09-17T11:13:28.042Z,24.90
2018-09-17T11:15:56.786Z,24.81
2018-09-17T11:18:25.612Z,24.84
2018-09-17T11:20:54.400Z,24.76
2018-09-17T11:23:23.174Z,24.69
2018-09-17T11:25:52.069Z,24.61
2018-09-17T11:28:21.074Z,24.74
2018-09-17T11:30:49.867Z,24.90
2018-09-17T11:33:18.657Z,25.02
2018-09-17T11:35:47.523Z,25.19
2018-09-17T11:38:16.323Z,25.12
2018-09-17T11:40:45.148Z,25.25
2018-09-17T11:43:13.972Z,25.22
2018-09-17T11:45:42.774Z,25.11
2018-09-17T11:48:11.603Z,24.96
2018-09-17T11:50:40.556Z,24.82
2018-09-17T11:53:09.351Z,24.72
2018-09-17T11:55:38.396Z,24.68
2018-09-17T11:58:07.216Z,24.53
2018-09-17T12:00:41.324Z,24.53
2018-09-17T12:03:15.232Z,24.46
2018-09-17T12:05:49.214Z,24.48
2018-09-17T12:08:18.948Z,24.52
2018-09-17T12:10:47.690Z,24.47
2018-09-17T12:13:16.528Z,24.47
2018-09-17T12:15:45.578Z,24.47
2018-09-17T12:18:14.935Z,24.49
2018-09-17T12:20:43.746Z,24.61
2018-09-17T12:23:12.596Z,24.72
2018-09-17T12:25:41.403Z,24.75
2018-09-17T12:28:10.201Z,24.65
2018-09-17T12:30:39.079Z,24.65
2018-09-17T12:33:07.973Z,24.72
2018-09-17T12:35:36.923Z,24.73
2018-09-17T12:38:05.822Z,24.78
2018-09-17T12:40:34.679Z,24.84
2018-09-17T12:43:03.502Z,24.88
2018-09-17T12:45:32.334Z,24.77
2018-09-17T12:48:01.195Z,24.82
2018-09-17T12:50:30.018Z,24.84
2018-09-17T12:52:58.836Z,24.86
2018-09-17T12:55:27.634Z,24.93
2018-09-17T12:57:57.190Z,24.98
2018-09-17T13:00:26.080Z,25.00
2018-09-17T13:02:54.926Z,25.02
2018-09-17T13:05:23.726Z,25.02
2018-09-17T13:07:53.611Z,25.02
2018-09-17T13:10:22.486Z,24.95
2018-09-17T13:12:51.578Z,25.03
2018-09-17T13:15:20.479Z,24.98
2018-09-17T13:17:49.343Z,24.90
2018-09-17T13:20:18.115Z,24.94
2018-09-17T13:22:46.940Z,24.99
2018-09-17T13:25:15.756Z,24.88
2018-09-17T13:27:44.621Z,24.90
2018-09-17T13:30:17.666Z,24.85
2018-09-17T13:32:46.514Z,24.89
2018-09-17T13:35:15.364Z,25.01
2018-09-17T13:37:44.190Z,25.06
2018-09-17T13:40:13.017Z,25.09
2018-09-17T13:42:42.036Z,25.09
2018-09-17T13:45:10.889Z,25.09
2018-09-17T13:47:39.704Z,25.10
2018-09-17T13:50:08.529Z,25.12
2018-09-17T13:52:37.363Z,25.08
2018-09-17T13:55:06.220Z,25.08
2018-09-17T13:57:35.071Z,25.17
2018-09-17T14:00:05.815Z,25.18
2018-09-17T14:02:34.678Z,25.24
2018-09-17T14:05:03.832Z,25.21
2018-09-17T14:07:32.844Z,25.27
2018-09-17T14:10:01.699Z,25.32
2018-09-17T14:12:31.709Z,25.33
2018-09-17T14:15:00.567Z,25.36
2018-09-17T14:17:29.601Z,25.46
2018-09-17T14:19:58.409Z,25.45
2018-09-17T14:22:27.231Z,25.59
2018-09-17T14:24:56.026Z,25.73
2018-09-17T14:27:24.999Z,25.68
2018-09-17T14:29:53.878Z,25.55
2018-09-17T14:32:27.849Z,25.30
2018-09-17T14:34:56.603Z,25.22
2018-09-17T14:37:25.339Z,25.19
2018-09-17T14:39:54.152Z,25.09
2018-09-17T14:42:22.925Z,25.14
2018-09-17T14:44:51.842Z,25.16
2018-09-17T14:47:20.713Z,25.18
2018-09-17T14:49:49.559Z,25.06
2018-09-17T14:52:18.492Z,25.01
2018-09-17T14:54:47.533Z,25.04
2018-09-17T14:57:16.508Z,25.09
2018-09-17T14:59:45.364Z,25.04
2018-09-17T15:02:14.250Z,24.96
2018-09-17T15:04:43.064Z,24.94
2018-09-17T15:07:11.931Z,24.89
2018-09-17T15:09:40.740Z,24.79
2018-09-17T15:12:09.617Z,24.83
2018-09-17T15:14:38.615Z,24.82
2018-09-17T15:17:07.471Z,24.79
2018-09-17T15:19:36.242Z,24.81
2018-09-17T15:22:05.041Z,24.77
2018-09-17T15:24:34.036Z,24.77
2018-09-17T15:27:02.878Z,24.71
2018-09-17T15:29:31.692Z,24.69
2018-09-17T15:32:00.806Z,24.67
2018-09-17T15:34:29.935Z,24.66
2018-09-17T15:36:58.992Z,24.53
2018-09-17T15:39:27.827Z,24.41
2018-09-17T15:41:56.789Z,24.30
2018-09-17T15:44:25.772Z,24.33
2018-09-17T15:46:54.778Z,24.33
2018-09-17T15:49:23.766Z,24.11
2018-09-17T15:51:52.632Z,24.09
2018-09-17T15:54:21.680Z,24.01
2018-09-17T15:56:50.434Z,23.97
2018-09-17T15:59:19.254Z,23.97
2018-09-17T16:01:48.130Z,23.92
2018-09-17T16:04:16.914Z,23.85
2018-09-17T16:06:45.717Z,23.85
2018-09-17T16:09:14.569Z,23.76
2018-09-17T16:11:43.401Z,23.71
2018-09-17T16:14:12.268Z,23.64
2018-09-17T16:16:41.274Z,23.55
2018-09-17T16:19:10.062Z,23.42
2018-09-17T16:21:38.923Z,23.34
2018-09-17T16:24:07.700Z,23.23
2018-09-17T16:26:36.660Z,23.16
2018-09-17T16:29:05.851Z,23.08
2018-09-17T16:31:34.678Z,23.01
2018-09-17T16:34:03.544Z,22.90
2018-09-17T16:36:32.428Z,22.82
2018-09-17T16:39:01.215Z,22.75
2018-09-17T16:41:30.149Z,22.67
2018-09-17T16:43:59.236Z,22.58
2018-09-17T16:46:28.074Z,22.51
2018-09-17T16:48:56.859Z,22.48
2018-09-17T16:51:25.680Z,22.43
2018-09-17T16:53:54.527Z,22.35
2018-09-17T16:56:23.385Z,22.26
2018-09-17T16:58:52.334Z,22.24
2018-09-17T17:01:21.280Z,22.19
2018-09-17T17:03:50.163Z,22.14
2018-09-17T17:06:18.946Z,22.12
2018-09-17T17:08:47.721Z,22.10
2018-09-17T17:11:16.538Z,22.06
2018-09-17T17:13:45.759Z,22.02
2018-09-17T17:16:14.571Z,21.99
2018-09-17T17:18:43.643Z,21.92
2018-09-17T17:21:12.585Z,21.89
2018-09-17T17:23:41.384Z,21.84
2018-09-17T17:26:10.212Z,21.81
2018-09-17T17:28:39.349Z,21.75
2018-09-17T17:31:08.148Z,21.73
2018-09-17T17:33:36.950Z,21.70
2018-09-17T17:36:05.811Z,21.64
2018-09-17T17:38:34.554Z,21.61
2018-09-17T17:41:03.370Z,21.56
2018-09-17T17:43:32.155Z,21.52
2018-09-17T17:46:01.003Z,21.48
2018-09-17T17:48:29.966Z,21.43
2018-09-17T17:50:58.731Z,21.43
2018-09-17T17:53:27.552Z,21.37
2018-09-17T17:55:56.366Z,21.36
2018-09-17T17:58:25.139Z,21.30
2018-09-17T18:00:54.230Z,21.26
2018-09-17T18:03:23.160Z,21.19
2018-09-17T18:05:51.994Z,21.11
2018-09-17T18:08:21.202Z,21.01
2018-09-17T18:10:49.972Z,20.97
2018-09-17T18:13:18.798Z,20.97
2018-09-17T18:15:47.661Z,20.92
2018-09-17T18:18:16.503Z,20.91
2018-09-17T18:20:45.733Z,20.86
2018-09-17T18:23:14.715Z,20.85
2018-09-17T18:25:43.537Z,20.86
2018-09-17T18:28:12.369Z,20.83
2018-09-17T18:30:41.226Z,20.80
2018-09-17T18:33:10.086Z,20.79
2018-09-17T18:35:39.163Z,20.77
2018-09-17T18:38:07.993Z,20.78
2018-09-17T18:40:36.917Z,20.76
2018-09-17T18:43:05.710Z,20.70
2018-09-17T18:45:34.497Z,20.70
2018-09-17T18:48:03.388Z,20.71
2018-09-17T18:50:42.049Z,20.70
2018-09-17T18:53:11.099Z,20.64
2018-09-17T18:55:39.848Z,20.66
2018-09-17T18:58:08.610Z,20.64
2018-09-17T19:00:37.402Z,20.60
2018-09-17T19:03:06.495Z,20.56
2018-09-17T19:05:35.519Z,20.54
2018-09-17T19:08:04.327Z,20.53
2018-09-17T19:10:33.226Z,20.53
2018-09-17T19:13:02.017Z,20.49
2018-09-17T19:15:35.990Z,20.48
2018-09-17T19:18:09.903Z,20.48
2018-09-17T19:20:39.213Z,20.46
2018-09-17T19:23:13.231Z,20.46
2018-09-17T19:25:42.094Z,20.37
2018-09-17T19:28:16.478Z,20.32
2018-09-17T19:30:46.800Z,20.27
2018-09-17T19:33:15.591Z,20.22
2018-09-17T19:35:44.404Z,20.20
2018-09-17T19:38:18.716Z,20.14
2018-09-17T19:40:47.689Z,20.06
2018-09-17T19:43:16.470Z,19.99
2018-09-17T19:45:50.556Z,19.90
2018-09-17T19:48:19.589Z,19.84
2018-09-17T19:51:53.435Z,19.78
2018-09-17T19:54:22.355Z,19.73
2018-09-17T19:56:51.287Z,19.71
2018-09-17T19:59:25.174Z,19.68
2018-09-17T20:01:53.988Z,19.64
2018-09-17T20:04:28.086Z,19.64
2018-09-17T20:06:56.908Z,19.63
2018-09-17T20:09:25.768Z,19.59
2018-09-17T20:11:54.548Z,19.50
2018-09-17T20:14:23.333Z,19.45
2018-09-17T20:16:52.170Z,19.45
2018-09-17T20:19:20.973Z,19.44
2018-09-17T20:21:50.108Z,19.45
2018-09-17T20:24:18.878Z,19.40
2018-09-17T20:26:47.682Z,19.49
2018-09-17T20:29:16.464Z,19.55
2018-09-17T20:31:45.584Z,19.63
2018-09-17T20:34:14.563Z,19.72
2018-09-17T20:36:43.354Z,19.72
2018-09-17T20:39:13.092Z,19.73
2018-09-17T20:41:41.852Z,19.73
2018-09-17T20:44:10.713Z,19.72
2018-09-17T20:46:39.543Z,19.67
2018-09-17T20:49:08.383Z,19.61
2018-09-17T20:51:37.292Z,19.37
2018-09-17T20:54:06.085Z,19.30
2018-09-17T20:56:34.898Z,19.19
2018-09-17T20:59:03.698Z,19.13
2018-09-17T21:01:32.650Z,19.11
2018-09-17T21:04:01.576Z,19.08
2018-09-17T21:06:30.346Z,18.98
2018-09-17T21:08:59.146Z,18.93
2018-09-17T21:11:27.946Z,18.88
2018-09-17T21:13:56.787Z,18.84
2018-09-17T21:16:26.596Z,18.79
2018-09-17T21:18:55.534Z,18.81
2018-09-17T21:21:24.541Z,18.81
2018-09-17T21:23:53.315Z,18.80
2018-09-17T21:26:22.113Z,18.73
2018-09-17T21:28:50.916Z,18.71
2018-09-17T21:31:19.961Z,18.69
2018-09-17T21:33:49.090Z,18.69
2018-09-17T21:36:17.919Z,18.63
2018-09-17T21:38:46.725Z,18.60
2018-09-17T21:41:15.496Z,18.59
2018-09-17T21:43:44.303Z,18.56
2018-09-17T21:46:13.215Z,18.55
2018-09-17T21:48:42.143Z,18.53
2018-09-17T21:51:10.958Z,18.53
2018-09-17T21:53:39.838Z,18.56
2018-09-17T21:56:08.648Z,18.53
2018-09-17T21:58:37.535Z,18.53
2018-09-17T22:01:06.579Z,18.48
2018-09-17T22:03:36.122Z,18.44
2018-09-17T22:06:04.921Z,18.40
2018-09-17T22:08:33.724Z,18.41
2018-09-17T22:11:02.568Z,18.43
2018-09-17T22:13:31.470Z,18.44
2018-09-17T22:16:00.453Z,18.41
2018-09-17T22:18:29.219Z,18.37
2018-09-17T22:20:58.079Z,18.38
2018-09-17T22:23:26.849Z,18.40
2018-09-17T22:25:55.627Z,18.38
2018-09-17T22:28:24.476Z,18.37
2018-09-17T22:30:53.280Z,18.33
2018-09-17T22:33:22.179Z,18.35
2018-09-17T22:35:50.961Z,18.32
2018-09-17T22:38:19.739Z,18.33
2018-09-17T22:40:48.514Z,18.35
2018-09-17T22:43:17.302Z,18.27
2018-09-17T22:45:46.095Z,18.26
2018-09-17T22:48:14.867Z,18.24
2018-09-17T22:50:43.653Z,18.24
2018-09-17T22:53:12.567Z,18.21
2018-09-17T22:55:41.338Z,18.24
2018-09-17T22:58:10.163Z,18.19
2018-09-17T23:00:39.016Z,18.17
2018-09-17T23:03:07.824Z,18.17
2018-09-17T23:05:36.737Z,18.12
2018-09-17T23:08:05.899Z,18.14
2018-09-17T23:10:34.747Z,18.14
2018-09-17T23:13:03.506Z,18.13
2018-09-17T23:15:32.283Z,18.13
2018-09-17T23:18:01.083Z,18.10
2018-09-17T23:20:29.917Z,18.06
2018-09-17T23:22:58.828Z,17.97
2018-09-17T23:25:27.635Z,17.99
2018-09-17T23:27:56.466Z,17.94
2018-09-17T23:30:25.343Z,17.93
2018-09-17T23:32:54.180Z,17.88
2018-09-17T23:35:23.004Z,17.82
2018-09-17T23:37:51.784Z,17.83
2018-09-17T23:40:20.628Z,17.81
2018-09-17T23:42:49.403Z,17.80
2018-09-17T23:45:18.201Z,17.75
2018-09-17T23:47:47.024Z,17.72
2018-09-17T23:50:15.805Z,17.73
2018-09-17T23:52:44.642Z,17.83
2018-09-17T23:55:13.420Z,17.81
2018-09-17T23:57:42.195Z,17.85
